createdAt,value
2022-09-10T00:02:11.501Z,1.20
2022-09-10T00:04:39.176Z,1.20
2022-09-10T00:07:06.800Z,1.10
2022-09-10T00:09:34.621Z,1.10
2022-09-10T00:12:02.412Z,1.17
2022-09-10T00:14:29.989Z,1.03
2022-09-10T00:16:58.973Z,0.80
2022-09-10T00:19:26.599Z,1.13
2022-09-10T00:21:54.242Z,1.00
2022-09-10T00:24:22.483Z,0.90
2022-09-10T00:26:50.095Z,0.90
2022-09-10T00:29:18.694Z,0.70
2022-09-10T00:31:46.475Z,1.00
2022-09-10T00:34:15.602Z,0.60
2022-09-10T00:36:44.913Z,0.80
2022-09-10T00:39:15.697Z,0.60
2022-09-10T00:41:46.536Z,1.20
2022-09-10T00:44:56.689Z,0.73
2022-09-10T00:47:29.830Z,0.87
2022-09-10T00:50:06.035Z,0.90
2022-09-10T00:52:39.407Z,1.00
2022-09-10T00:55:09.032Z,0.70
2022-09-10T00:57:37.145Z,0.90
2022-09-10T01:00:11.822Z,0.93
2022-09-10T01:02:39.700Z,0.80
2022-09-10T01:05:10.733Z,0.60
2022-09-10T01:07:39.020Z,0.60
2022-09-10T01:10:12.611Z,0.90
2022-09-10T01:12:57.855Z,0.90
2022-09-10T01:15:36.358Z,0.70
2022-09-10T01:18:16.017Z,0.97
2022-09-10T01:20:59.428Z,0.57
2022-09-10T01:24:00.899Z,0.70
2022-09-10T01:26:52.134Z,0.97
2022-09-10T01:29:25.358Z,0.60
2022-09-10T01:31:57.820Z,0.53
2022-09-10T01:34:30.479Z,0.90
2022-09-10T01:37:05.429Z,1.00
2022-09-10T01:39:34.018Z,0.60
2022-09-10T01:42:01.729Z,0.67
2022-09-10T01:44:49.568Z,0.60
2022-09-10T01:47:27.826Z,0.80
2022-09-10T01:50:10.282Z,0.63
2022-09-10T01:52:47.799Z,0.77
2022-09-10T01:55:31.651Z,0.60
2022-09-10T01:58:14.101Z,0.83
2022-09-10T02:00:49.949Z,0.70
2022-09-10T02:03:21.570Z,0.73
2022-09-10T02:05:53.829Z,0.70
2022-09-10T02:08:25.383Z,0.67
2022-09-10T02:10:56.523Z,0.70
2022-09-10T02:13:25.139Z,0.70
2022-09-10T02:15:54.636Z,0.87
2022-09-10T02:18:23.033Z,0.90
2022-09-10T02:20:53.112Z,0.90
2022-09-10T02:23:26.035Z,0.97
2022-09-10T02:25:54.066Z,1.10
2022-09-10T02:28:21.714Z,1.10
2022-09-10T02:30:49.337Z,1.23
2022-09-10T02:33:18.408Z,1.03
2022-09-10T02:35:47.727Z,1.43
2022-09-10T02:38:16.454Z,1.00
2022-09-10T02:40:44.154Z,1.00
2022-09-10T02:43:11.721Z,0.90
2022-09-10T02:45:40.087Z,0.80
2022-09-10T02:48:07.967Z,1.00
2022-09-10T02:50:37.630Z,0.90
2022-09-10T02:53:05.337Z,1.00
2022-09-10T02:55:32.984Z,1.10
2022-09-10T02:58:00.541Z,0.90
2022-09-10T03:00:28.144Z,0.70
2022-09-10T03:03:00.873Z,0.93
2022-09-10T03:05:30.553Z,0.80
2022-09-10T03:08:00.316Z,0.70
2022-09-10T03:10:28.276Z,0.80
2022-09-10T03:12:55.850Z,0.97
2022-09-10T03:15:23.502Z,0.87
2022-09-10T03:17:51.310Z,0.87
2022-09-10T03:20:19.178Z,0.90
2022-09-10T03:22:47.605Z,0.80
2022-09-10T03:25:17.158Z,0.90
2022-09-10T03:27:44.725Z,0.90
2022-09-10T03:30:13.056Z,0.97
2022-09-10T03:32:40.868Z,1.23
2022-09-10T03:35:10.088Z,1.40
2022-09-10T03:37:37.726Z,1.40
2022-09-10T03:40:06.985Z,1.20
2022-09-10T03:42:36.291Z,1.10
2022-09-10T03:45:03.896Z,1.07
2022-09-10T03:47:31.509Z,1.10
2022-09-10T03:49:59.915Z,1.00
2022-09-10T03:52:27.669Z,1.27
2022-09-10T03:54:55.265Z,1.17
2022-09-10T03:57:23.277Z,1.17
2022-09-10T03:59:52.583Z,0.93
2022-09-10T04:02:20.252Z,1.10
2022-09-10T04:04:47.915Z,1.27
2022-09-10T04:07:15.515Z,1.43
2022-09-10T04:09:43.132Z,1.00
2022-09-10T04:12:10.791Z,1.13
2022-09-10T04:14:38.424Z,1.10
2022-09-10T04:17:07.341Z,1.20
2022-09-10T04:19:35.364Z,1.43
2022-09-10T04:22:03.027Z,1.33
2022-09-10T04:24:30.577Z,1.27
2022-09-10T04:26:59.026Z,1.17
2022-09-10T04:29:26.641Z,1.00
2022-09-10T04:31:55.207Z,1.13
2022-09-10T04:34:24.252Z,1.20
2022-09-10T04:36:53.504Z,1.20
2022-09-10T04:39:21.250Z,1.00
2022-09-10T04:41:48.834Z,1.40
2022-09-10T04:44:20.087Z,1.13
2022-09-10T04:46:48.263Z,1.10
2022-09-10T04:49:15.827Z,1.10
2022-09-10T04:51:44.753Z,1.10
2022-09-10T04:54:14.414Z,1.17
2022-09-10T04:56:42.109Z,1.30
2022-09-10T04:59:10.766Z,0.90
2022-09-10T05:01:38.398Z,1.00
2022-09-10T05:04:06.118Z,0.87
2022-09-10T05:06:33.699Z,1.20
2022-09-10T05:09:03.371Z,1.33
2022-09-10T05:11:31.343Z,1.07
2022-09-10T05:13:59.064Z,1.07
2022-09-10T05:16:26.641Z,1.40
2022-09-10T05:18:54.370Z,1.40
2022-09-10T05:21:22.637Z,1.70
2022-09-10T05:23:50.207Z,1.60
2022-09-10T05:26:19.119Z,1.43
2022-09-10T05:28:47.663Z,1.60
2022-09-10T05:31:16.509Z,1.83
2022-09-10T05:33:44.241Z,1.60
2022-09-10T05:36:11.791Z,1.40
2022-09-10T05:38:40.301Z,1.53
2022-09-10T05:41:10.392Z,1.60
2022-09-10T05:43:40.278Z,2.13
2022-09-10T05:46:08.139Z,1.50
2022-09-10T05:48:39.634Z,1.57
2022-09-10T05:51:09.303Z,1.60
2022-09-10T05:53:38.156Z,1.67
2022-09-10T05:56:07.276Z,2.10
2022-09-10T05:58:34.925Z,1.67
2022-09-10T06:01:03.876Z,1.77
2022-09-10T06:03:31.581Z,1.60
2022-09-10T06:05:59.154Z,2.17
2022-09-10T06:08:26.740Z,1.30
2022-09-10T06:10:58.493Z,2.33
2022-09-10T06:13:26.286Z,2.17
2022-09-10T06:15:54.316Z,3.13
2022-09-10T06:18:23.282Z,2.77
2022-09-10T06:20:51.020Z,2.30
2022-09-10T06:23:18.886Z,2.50
2022-09-10T06:25:48.332Z,1.77
2022-09-10T06:28:16.022Z,1.97
2022-09-10T06:30:45.824Z,2.20
2022-09-10T06:33:13.995Z,1.70
2022-09-10T06:35:42.998Z,1.47
2022-09-10T06:38:10.596Z,1.50
2022-09-10T06:40:38.165Z,2.37
2022-09-10T06:43:06.036Z,1.43
2022-09-10T06:45:33.679Z,1.60
2022-09-10T06:50:54.942Z,2.00
2022-09-10T06:53:23.735Z,1.90
2022-09-10T06:55:52.306Z,1.60
2022-09-10T06:58:21.741Z,2.93
2022-09-10T07:00:49.955Z,2.30
2022-09-10T07:03:18.478Z,2.53
2022-09-10T07:05:47.231Z,2.37
2022-09-10T07:08:17.706Z,2.97
2022-09-10T07:10:46.424Z,2.30
2022-09-10T07:13:14.536Z,2.40
2022-09-10T07:15:46.377Z,2.03
2022-09-10T07:18:15.331Z,1.83
2022-09-10T07:20:43.348Z,1.97
2022-09-10T07:23:12.893Z,1.70
2022-09-10T07:25:42.658Z,1.73
2022-09-10T07:28:13.548Z,2.07
2022-09-10T07:30:41.890Z,2.37
2022-09-10T07:33:11.091Z,1.90
2022-09-10T07:35:39.495Z,2.10
2022-09-10T07:38:07.949Z,2.20
2022-09-10T07:40:35.928Z,2.40
2022-09-10T07:43:04.868Z,1.73
2022-09-10T07:45:32.542Z,2.10
2022-09-10T07:48:00.452Z,2.37
2022-09-10T07:50:28.757Z,2.00
2022-09-10T07:52:56.335Z,2.73
2022-09-10T07:55:24.288Z,3.10
2022-09-10T07:57:51.864Z,3.10
2022-09-10T08:00:21.039Z,3.37
2022-09-10T08:02:48.805Z,4.00
2022-09-10T08:05:16.861Z,3.43
2022-09-10T08:07:44.457Z,2.95
2022-09-10T08:10:13.382Z,3.20
2022-09-10T08:12:42.024Z,3.03
2022-09-10T08:15:11.097Z,1.87
2022-09-10T08:17:40.086Z,3.10
2022-09-10T08:20:09.853Z,2.67
2022-09-10T08:22:37.431Z,2.63
2022-09-10T08:25:05.863Z,2.20
2022-09-10T08:27:34.261Z,2.97
2022-09-10T08:30:01.815Z,2.50
2022-09-10T08:32:29.457Z,2.37
2022-09-10T08:34:58.343Z,2.10
2022-09-10T08:37:25.993Z,1.80
2022-09-10T08:39:53.733Z,2.03
2022-09-10T08:42:26.864Z,1.90
2022-09-10T08:45:00.212Z,2.33
2022-09-10T08:47:33.349Z,2.40
2022-09-10T08:50:11.101Z,2.33
2022-09-10T08:52:44.973Z,1.20
2022-09-10T08:55:24.387Z,2.30
2022-09-10T08:57:57.009Z,2.00
2022-09-10T09:00:27.102Z,1.77
2022-09-10T09:02:59.851Z,1.90
2022-09-10T09:05:31.665Z,2.00
2022-09-10T09:07:59.593Z,1.67
2022-09-10T09:10:34.815Z,1.70
2022-09-10T09:13:22.890Z,1.40
2022-09-10T09:15:58.229Z,2.00
2022-09-10T09:18:35.841Z,1.43
2022-09-10T09:21:16.575Z,1.43
2022-09-10T09:24:12.269Z,1.60
2022-09-10T09:26:46.176Z,1.47
2022-09-10T09:29:18.006Z,1.10
2022-09-10T09:31:49.982Z,2.17
2022-09-10T09:34:21.944Z,2.00
2022-09-10T09:36:54.885Z,1.50
2022-09-10T09:39:26.327Z,1.80
2022-09-10T09:42:03.223Z,1.63
2022-09-10T09:44:38.743Z,1.20
2022-09-10T09:47:06.386Z,1.90
2022-09-10T09:49:34.072Z,2.30
2022-09-10T09:52:15.084Z,2.00
2022-09-10T09:55:13.382Z,2.50
2022-09-10T09:57:36.273Z,1.40
2022-09-10T10:00:35.984Z,1.60
2022-09-10T10:03:14.077Z,5.33
2022-09-10T10:05:42.358Z,1.93
2022-09-10T10:08:30.239Z,1.63
2022-09-10T10:10:58.502Z,1.30
2022-09-10T10:13:26.205Z,1.90
2022-09-10T10:15:54.091Z,1.07
2022-09-10T10:18:32.674Z,2.00
2022-09-10T10:21:31.009Z,1.10
2022-09-10T10:24:00.880Z,2.30
2022-09-10T10:26:33.640Z,1.37
2022-09-10T10:29:04.095Z,1.70
2022-09-10T10:31:41.277Z,1.47
2022-09-10T10:34:30.850Z,1.43
2022-09-10T10:37:08.370Z,2.10
2022-09-10T10:39:52.360Z,1.80
2022-09-10T10:42:24.137Z,1.80
2022-09-10T10:45:02.770Z,1.73
2022-09-10T10:47:45.448Z,2.17
2022-09-10T10:50:26.471Z,1.50
2022-09-10T10:53:14.511Z,1.20
2022-09-10T10:55:48.286Z,1.37
2022-09-10T10:58:30.296Z,1.23
2022-09-10T11:01:03.323Z,1.40
2022-09-10T11:03:36.592Z,1.27
2022-09-10T11:06:09.352Z,1.47
2022-09-10T11:08:42.439Z,1.30
2022-09-10T11:11:18.477Z,1.10
2022-09-10T11:13:52.201Z,1.40
2022-09-10T11:16:23.929Z,0.67
2022-09-10T11:18:55.069Z,0.80
2022-09-10T11:21:29.718Z,0.93
2022-09-10T11:24:02.634Z,0.80
2022-09-10T11:26:37.732Z,1.00
2022-09-10T11:29:22.241Z,0.73
2022-09-10T11:31:59.156Z,1.17
2022-09-10T11:34:32.636Z,1.13
2022-09-10T11:37:06.140Z,0.90
2022-09-10T11:39:36.428Z,1.00
2022-09-10T11:42:15.971Z,0.87
2022-09-10T11:44:55.964Z,1.73
2022-09-10T11:47:27.734Z,0.70
2022-09-10T11:50:01.193Z,0.87
2022-09-10T11:52:30.893Z,0.83
2022-09-10T11:54:59.410Z,0.73
2022-09-10T11:57:41.226Z,0.90
2022-09-10T12:00:16.925Z,0.67
2022-09-10T12:03:36.200Z,0.87
2022-09-10T12:06:08.084Z,1.10
2022-09-10T12:08:57.159Z,1.33
2022-09-10T12:11:32.078Z,1.30
2022-09-10T12:14:06.168Z,0.90
2022-09-10T12:16:39.319Z,1.20
2022-09-10T12:19:17.643Z,0.90
2022-09-10T12:21:52.275Z,1.10
2022-09-10T12:24:27.845Z,1.10
2022-09-10T12:26:56.425Z,1.33
2022-09-10T12:29:36.810Z,1.00
2022-09-10T12:32:29.775Z,0.70
2022-09-10T12:35:43.787Z,0.93
2022-09-10T12:38:48.731Z,0.90
2022-09-10T12:41:49.731Z,0.80
2022-09-10T12:44:49.431Z,0.80
2022-09-10T12:47:52.366Z,0.63
2022-09-10T12:50:46.176Z,0.87
2022-09-10T12:53:51.489Z,0.87
2022-09-10T12:56:40.654Z,0.63
2022-09-10T12:59:23.144Z,0.90
2022-09-10T13:01:52.948Z,0.83
2022-09-10T13:04:28.502Z,0.57
2022-09-10T13:07:00.038Z,0.60
2022-09-10T13:09:31.100Z,0.50
2022-09-10T13:12:04.512Z,0.50
2022-09-10T13:14:36.695Z,0.60
2022-09-10T13:17:06.391Z,0.53
2022-09-10T13:19:51.977Z,0.50
2022-09-10T13:22:53.272Z,0.40
2022-09-10T13:25:27.267Z,0.70
2022-09-10T13:27:55.312Z,0.90
2022-09-10T13:30:24.072Z,0.60
2022-09-10T13:32:56.693Z,0.80
2022-09-10T13:36:02.171Z,0.77
2022-09-10T13:38:53.969Z,0.40
2022-09-10T13:41:59.924Z,0.63
2022-09-10T13:44:53.621Z,0.60
2022-09-10T13:47:25.485Z,0.50
2022-09-10T13:49:59.341Z,0.50
2022-09-10T13:52:32.574Z,0.70
2022-09-10T13:55:01.691Z,0.70
2022-09-10T13:57:33.305Z,0.50
2022-09-10T14:00:07.011Z,0.67
2022-09-10T14:02:41.716Z,0.70
2022-09-10T14:05:30.627Z,1.10
2022-09-10T14:08:02.957Z,0.77
2022-09-10T14:10:32.196Z,0.53
2022-09-10T14:13:00.582Z,0.60
2022-09-10T14:15:34.019Z,0.70
2022-09-10T14:18:02.154Z,0.83
2022-09-10T14:20:34.336Z,0.70
2022-09-10T14:23:03.991Z,0.80
2022-09-10T14:25:33.799Z,0.80
2022-09-10T14:28:21.766Z,1.30
2022-09-10T14:30:50.663Z,0.80
2022-09-10T14:33:30.769Z,0.67
2022-09-10T14:36:14.531Z,0.70
2022-09-10T14:38:42.429Z,0.73
2022-09-10T14:41:19.791Z,0.70
2022-09-10T14:43:47.937Z,0.83
2022-09-10T14:46:49.843Z,0.73
2022-09-10T14:49:19.200Z,0.73
2022-09-10T14:51:48.166Z,0.60
2022-09-10T14:54:15.810Z,0.60
2022-09-10T14:56:46.051Z,0.93
2022-09-10T14:59:16.546Z,1.13
2022-09-10T15:01:45.854Z,0.93
2022-09-10T15:04:15.788Z,0.80
2022-09-10T15:06:44.931Z,0.67
2022-09-10T15:09:15.038Z,0.90
2022-09-10T15:11:50.587Z,0.77
2022-09-10T15:14:20.010Z,0.60
2022-09-10T15:16:48.231Z,0.80
2022-09-10T15:19:17.129Z,0.80
2022-09-10T15:21:44.776Z,0.87
2022-09-10T15:24:15.858Z,0.60
2022-09-10T15:26:43.892Z,0.80
2022-09-10T15:29:11.854Z,0.80
2022-09-10T15:31:40.228Z,0.67
2022-09-10T15:34:09.377Z,0.60
2022-09-10T15:36:39.836Z,0.60
2022-09-10T15:39:08.082Z,0.73
2022-09-10T15:41:42.566Z,0.70
2022-09-10T15:44:10.421Z,0.60
2022-09-10T15:46:45.097Z,0.87
2022-09-10T15:49:12.813Z,0.60
2022-09-10T15:51:41.240Z,0.77
2022-09-10T15:54:11.360Z,0.73
2022-09-10T15:56:40.999Z,0.70
2022-09-10T15:59:12.506Z,0.90
2022-09-10T16:01:40.189Z,1.17
2022-09-10T16:04:08.182Z,0.90
2022-09-10T16:06:39.196Z,0.70
2022-09-10T16:09:09.639Z,0.57
2022-09-10T16:11:40.763Z,0.60
2022-09-10T16:14:11.597Z,0.70
2022-09-10T16:16:40.837Z,0.60
2022-09-10T16:19:09.175Z,0.87
2022-09-10T16:21:39.213Z,0.97
2022-09-10T16:24:07.892Z,0.80
2022-09-10T16:26:37.342Z,0.73
2022-09-10T16:29:08.143Z,1.00
2022-09-10T16:31:39.065Z,0.90
2022-09-10T16:34:11.227Z,1.03
2022-09-10T16:36:40.330Z,0.70
2022-09-10T16:39:12.198Z,1.30
2022-09-10T16:41:40.973Z,1.43
2022-09-10T16:44:10.982Z,0.90
2022-09-10T16:46:39.054Z,1.00
2022-09-10T16:49:08.470Z,1.50
2022-09-10T16:51:36.852Z,1.27
2022-09-10T16:54:06.720Z,1.87
2022-09-10T16:56:36.808Z,1.33
2022-09-10T16:59:07.414Z,1.30
2022-09-10T17:01:36.680Z,1.50
2022-09-10T17:04:07.154Z,1.60
2022-09-10T17:06:36.660Z,1.27
2022-09-10T17:09:04.530Z,1.50
2022-09-10T17:11:34.510Z,1.80
2022-09-10T17:14:04.442Z,1.33
2022-09-10T17:16:34.391Z,1.10
2022-09-10T17:19:06.950Z,1.40
2022-09-10T17:21:36.231Z,1.43
2022-09-10T17:24:05.892Z,1.20
2022-09-10T17:26:34.895Z,1.37
2022-09-10T17:29:04.879Z,1.40
2022-09-10T17:31:32.519Z,1.50
2022-09-10T17:34:00.991Z,1.60
2022-09-10T17:36:30.568Z,1.73
2022-09-10T17:38:59.127Z,1.73
2022-09-10T17:41:28.039Z,1.80
2022-09-10T17:43:56.538Z,2.37
2022-09-10T17:46:24.238Z,2.23
2022-09-10T17:48:53.424Z,2.27
2022-09-10T17:51:22.743Z,2.37
2022-09-10T17:53:52.914Z,2.10
2022-09-10T17:56:20.770Z,2.23
2022-09-10T17:58:49.380Z,2.50
2022-09-10T18:01:23.607Z,2.47
2022-09-10T18:03:51.619Z,2.87
2022-09-10T18:06:19.235Z,2.33
2022-09-10T18:08:46.815Z,2.53
2022-09-10T18:11:18.637Z,2.33
2022-09-10T18:13:49.191Z,2.70
2022-09-10T18:16:18.615Z,2.60
2022-09-10T18:18:52.999Z,2.80
2022-09-10T18:21:23.933Z,2.80
2022-09-10T18:23:52.884Z,2.57
2022-09-10T18:26:23.991Z,2.73
2022-09-10T18:28:57.273Z,2.83
2022-09-10T18:31:26.134Z,2.67
2022-09-10T18:33:55.648Z,2.90
2022-09-10T18:36:25.011Z,2.53
2022-09-10T18:38:52.788Z,2.60
2022-09-10T18:41:24.112Z,2.20
2022-09-10T18:43:53.546Z,1.80
2022-09-10T18:46:23.539Z,1.90
2022-09-10T18:48:52.046Z,2.30
2022-09-10T18:51:21.941Z,2.27
2022-09-10T18:53:52.883Z,2.73
2022-09-10T18:56:24.322Z,2.30
2022-09-10T18:58:53.453Z,2.40
2022-09-10T19:01:21.274Z,1.87
2022-09-10T19:03:49.937Z,2.50
2022-09-10T19:06:19.386Z,2.50
2022-09-10T19:08:48.760Z,2.60
2022-09-10T19:11:18.888Z,2.47
2022-09-10T19:13:51.282Z,2.50
2022-09-10T19:16:20.468Z,2.20
2022-09-10T19:18:51.930Z,3.03
2022-09-10T19:21:20.152Z,2.70
2022-09-10T19:23:49.378Z,2.20
2022-09-10T19:26:17.721Z,2.50
2022-09-10T19:28:46.312Z,2.77
2022-09-10T19:31:17.172Z,2.67
2022-09-10T19:33:44.850Z,3.10
2022-09-10T19:36:15.313Z,2.57
2022-09-10T19:38:43.313Z,2.17
2022-09-10T19:41:13.080Z,2.77
2022-09-10T19:43:42.015Z,2.17
2022-09-10T19:46:11.588Z,3.27
2022-09-10T19:48:41.106Z,3.40
2022-09-10T19:51:10.875Z,3.27
2022-09-10T19:53:40.090Z,2.60
2022-09-10T19:56:10.293Z,3.00
2022-09-10T19:58:41.561Z,2.30
2022-09-10T20:01:10.584Z,2.70
2022-09-10T20:03:40.662Z,2.10
2022-09-10T20:06:10.449Z,2.77
2022-09-10T20:08:38.823Z,2.70
2022-09-10T20:11:07.614Z,2.40
2022-09-10T20:13:35.969Z,2.40
2022-09-10T20:16:04.697Z,2.60
2022-09-10T20:18:34.122Z,2.23
2022-09-10T20:21:12.723Z,2.40
2022-09-10T20:23:40.797Z,2.30
2022-09-10T20:26:11.200Z,2.33
2022-09-10T20:28:39.440Z,2.37
2022-09-10T20:31:08.820Z,2.23
2022-09-10T20:33:37.460Z,2.37
2022-09-10T20:36:07.013Z,2.10
2022-09-10T20:38:36.059Z,2.00
2022-09-10T20:41:04.308Z,2.40
2022-09-10T20:43:32.315Z,2.70
2022-09-10T20:45:59.918Z,2.40
2022-09-10T20:48:28.051Z,1.87
2022-09-10T20:50:57.236Z,2.90
2022-09-10T20:53:25.557Z,2.87
2022-09-10T20:56:02.425Z,2.50
2022-09-10T20:58:30.078Z,2.10
2022-09-10T21:01:05.909Z,1.90
2022-09-10T21:03:33.900Z,1.60
2022-09-10T21:06:03.519Z,1.37
2022-09-10T21:08:32.353Z,1.40
2022-09-10T21:11:05.546Z,1.23
2022-09-10T21:13:34.256Z,1.40
2022-09-10T21:16:09.667Z,1.30
2022-09-10T21:18:37.477Z,1.23
2022-09-10T21:21:09.831Z,1.40
2022-09-10T21:23:42.621Z,1.50
2022-09-10T21:26:11.786Z,1.30
2022-09-10T21:28:39.759Z,1.47
2022-09-10T21:31:09.320Z,2.00
2022-09-10T21:33:37.688Z,1.70
2022-09-10T21:36:07.449Z,1.90
2022-09-10T21:38:35.981Z,1.60
2022-09-10T21:41:05.372Z,2.40
2022-09-10T21:43:36.013Z,1.80
2022-09-10T21:46:05.553Z,1.70
2022-09-10T21:48:35.807Z,1.40
2022-09-10T21:51:05.752Z,1.20
2022-09-10T21:53:34.710Z,1.83
2022-09-10T21:56:04.344Z,1.50
2022-09-10T21:58:35.701Z,2.00
2022-09-10T22:01:03.910Z,1.50
2022-09-10T22:03:33.581Z,1.60
2022-09-10T22:06:09.460Z,1.27
2022-09-10T22:08:38.293Z,1.10
2022-09-10T22:11:07.554Z,1.30
2022-09-10T22:13:37.765Z,1.93
2022-09-10T22:16:06.739Z,1.40
2022-09-10T22:18:35.146Z,1.40
2022-09-10T22:21:03.162Z,1.40
2022-09-10T22:23:31.490Z,1.77
2022-09-10T22:26:05.135Z,1.33
2022-09-10T22:28:34.957Z,2.27
2022-09-10T22:31:10.062Z,1.90
2022-09-10T22:33:39.391Z,1.73
2022-09-10T22:36:12.098Z,1.67
2022-09-10T22:38:39.918Z,1.90
2022-09-10T22:41:10.203Z,1.30
2022-09-10T22:43:38.835Z,1.60
2022-09-10T22:46:08.412Z,1.50
2022-09-10T22:48:37.579Z,1.60
2022-09-10T22:51:05.502Z,1.43
2022-09-10T22:53:33.149Z,1.70
2022-09-10T22:56:02.136Z,2.00
2022-09-10T22:58:30.106Z,1.83
2022-09-10T23:01:02.960Z,1.90
2022-09-10T23:03:32.061Z,1.73
2022-09-10T23:06:06.072Z,1.80
2022-09-10T23:08:35.799Z,1.87
2022-09-10T23:11:12.261Z,1.93
2022-09-10T23:13:40.790Z,2.10
2022-09-10T23:16:13.067Z,1.90
2022-09-10T23:18:43.503Z,1.80
2022-09-10T23:21:11.864Z,1.80
2022-09-10T23:23:39.563Z,1.60
2022-09-10T23:26:10.117Z,1.63
2022-09-10T23:28:38.026Z,1.90
2022-09-10T23:31:10.549Z,1.63
2022-09-10T23:33:38.205Z,1.77
2022-09-10T23:36:07.639Z,1.70
2022-09-10T23:38:36.000Z,1.90
2022-09-10T23:41:03.792Z,2.00
2022-09-10T23:43:31.455Z,1.80
2022-09-10T23:45:59.733Z,1.60
2022-09-10T23:48:28.227Z,1.97
2022-09-10T23:50:56.058Z,1.73
2022-09-10T23:53:26.033Z,2.30
2022-09-10T23:55:54.351Z,1.70
2022-09-10T23:58:23.454Z,1.80
